Terminal Aerodrome Forecast
Issued by NWS

Home | Current Version | Previous Version | Text Only | Print | Product List | Glossary On
Versions: 1 2 3 4 5 6 7 8 9 10 11 12
000
FTAK31 PANC 221731
TAFAIL
TAF
PAIL 221731Z 2218/2318 VRB06KT P6SM FEW250
     FM222300 12010KT P6SM SCT080 BKN120
     FM230800 06008KT P6SM VCSH SCT035 OVC050
     FM231300 04008KT 2SM -SHSN BR SCT002 BKN025 OVC050=

USA.gov is the U.S. government's official web portal to all federal, state and local government web resources and services.